Time;durP1;ratioP1;P1;durP2;ratioP2;P2;SDS_P1;SDS_P2;PMS_P1;PMS_P2;Temp;Humidity;BMP_temperature;BMP_pressure;BME280_temperature;BME280_humidity;BME280_pressure;Samples;Min_cycle;Max_cycle;Signal;HPM_P1;HPM_P2
2023/01/04 00:02:43;;;;;;;65.70;31.60;;;2.60;99.90;;;;;;4895470;29;20069;-87
2023/01/04 00:05:31;;;;;;;62.45;29.23;;;2.50;99.90;;;;;;4898711;29;20073;-86
2023/01/04 00:08:22;;;;;;;65.45;31.40;;;2.40;99.90;;;;;;4902262;29;20025;-85
2023/01/04 00:11:20;;;;;;;69.15;32.25;;;2.40;99.90;;;;;;4903511;29;20072;-88
2023/01/04 00:14:09;;;;;;;67.25;28.35;;;2.30;99.90;;;;;;4890956;29;20052;-89
2023/01/04 00:16:57;;;;;;;62.45;30.15;;;2.30;99.90;;;;;;4889038;29;20045;-88
2023/01/04 00:19:44;;;;;;;63.10;29.58;;;2.30;99.90;;;;;;4888801;29;20095;-88
2023/01/04 00:22:33;;;;;;;60.85;29.70;;;2.20;99.90;;;;;;4890593;29;20049;-88
2023/01/04 00:25:21;;;;;;;69.28;32.47;;;2.10;99.90;;;;;;4887857;29;20489;-86
2023/01/04 00:28:08;;;;;;;59.05;29.85;;;2.10;99.90;;;;;;4885885;29;20056;-88
2023/01/04 00:31:25;;;;;;;63.88;29.55;;;2.20;99.90;;;;;;4883086;29;20844;-88
2023/01/04 00:34:14;;;;;;;59.40;29.27;;;2.30;99.90;;;;;;4882244;29;20057;-87
2023/01/04 00:37:03;;;;;;;57.40;28.52;;;2.30;99.90;;;;;;4881713;29;20359;-87
2023/01/04 00:39:50;;;;;;;63.20;31.65;;;2.40;99.90;;;;;;4877652;29;20056;-87
2023/01/04 00:42:37;;;;;;;59.22;28.83;;;2.40;99.90;;;;;;4880788;29;20109;-86
2023/01/04 00:45:27;;;;;;;57.17;28.05;;;2.30;99.90;;;;;;4879062;29;20049;-87
2023/01/04 00:48:14;;;;;;;58.05;29.17;;;2.40;99.90;;;;;;4880364;29;20136;-87
2023/01/04 00:51:03;;;;;;;58.95;28.55;;;2.40;99.90;;;;;;4880548;29;20888;-86
2023/01/04 00:53:51;;;;;;;60.60;29.20;;;2.40;99.90;;;;;;4879789;29;20108;-87
2023/01/04 00:56:39;;;;;;;59.38;28.45;;;2.30;99.90;;;;;;4879515;29;20178;-86
2023/01/04 00:59:27;;;;;;;62.85;30.70;;;2.30;99.90;;;;;;4875737;29;20455;-87
2023/01/04 01:02:14;;;;;;;65.95;31.17;;;2.30;99.90;;;;;;4876745;29;20359;-86
2023/01/04 01:05:04;;;;;;;64.45;30.73;;;2.30;99.90;;;;;;4869365;29;20052;-87
2023/01/04 01:07:51;;;;;;;67.10;31.40;;;2.20;99.90;;;;;;4872007;29;20048;-88
2023/01/04 01:10:38;;;;;;;61.38;29.42;;;2.20;99.90;;;;;;4877589;29;20132;-86
2023/01/04 01:13:26;;;;;;;58.10;27.90;;;2.20;99.90;;;;;;4880673;29;20092;-85
2023/01/04 01:16:16;;;;;;;57.60;27.92;;;2.20;99.90;;;;;;4879900;29;20075;-87
2023/01/04 01:19:18;;;;;;;52.67;26.73;;;2.20;99.90;;;;;;4882406;29;20123;-89
2023/01/04 01:22:05;;;;;;;56.72;27.85;;;2.20;99.90;;;;;;4880919;29;20048;-87
2023/01/04 01:24:52;;;;;;;58.45;27.17;;;2.20;99.90;;;;;;4876367;29;20064;-87
2023/01/04 01:27:40;;;;;;;56.75;27.70;;;2.10;99.90;;;;;;4876659;29;20049;-88
2023/01/04 01:30:28;;;;;;;62.45;30.17;;;2.10;99.90;;;;;;4880181;29;20064;-86
2023/01/04 01:33:22;;;;;;;62.05;29.00;;;2.10;99.90;;;;;;4873920;29;20049;-89
2023/01/04 01:36:14;;;;;;;65.22;28.42;;;2.10;99.90;;;;;;4875963;29;20500;-88
2023/01/04 01:39:01;;;;;;;60.28;29.17;;;2.20;99.90;;;;;;4878856;29;20128;-89
2023/01/04 01:41:51;;;;;;;61.30;28.60;;;2.10;99.90;;;;;;4867591;29;20061;-88
2023/01/04 01:44:41;;;;;;;60.00;27.40;;;2.20;99.90;;;;;;4879945;29;20132;-89
2023/01/04 01:47:58;;;;;;;55.42;27.15;;;2.20;99.90;;;;;;4867245;29;20049;-88
2023/01/04 01:51:06;;;;;;;61.83;27.75;;;2.30;99.90;;;;;;4878108;29;20148;-89
2023/01/04 01:54:04;;;;;;;57.05;26.05;;;2.30;99.90;;;;;;4866152;29;20049;-87
2023/01/04 01:56:54;;;;;;;57.75;26.83;;;2.30;99.90;;;;;;4878386;29;20045;-88
2023/01/04 01:59:44;;;;;;;53.58;26.25;;;2.30;99.90;;;;;;4866518;29;20045;-88
2023/01/04 02:02:32;;;;;;;54.63;25.58;;;2.30;99.90;;;;;;4876904;29;20131;-86
2023/01/04 02:05:20;;;;;;;50.47;25.02;;;2.40;99.90;;;;;;4892070;29;20045;-89
2023/01/04 02:08:14;;;;;;;50.90;26.65;;;2.40;99.90;;;;;;4887567;29;20068;-87
2023/01/04 02:11:01;;;;;;;50.33;25.77;;;2.40;99.90;;;;;;4873176;29;20080;-88
2023/01/04 02:17:15;;;;;;;50.53;24.58;;;2.40;99.90;;;;;;4881653;29;20052;-87
2023/01/04 02:20:17;;;;;;;52.28;24.52;;;2.40;99.90;;;;;;4886182;29;20063;-88
2023/01/04 02:23:11;;;;;;;;;;;2.40;99.90;;;;;;4885155;29;20100;-88
2023/01/04 02:26:17;;;;;;;50.85;24.77;;;2.20;99.90;;;;;;4876910;29;19934;-87
2023/01/04 02:29:32;;;;;;;50.90;24.83;;;2.30;99.90;;;;;;4882955;29;20534;-86
2023/01/04 02:32:37;;;;;;;49.30;23.95;;;2.20;99.90;;;;;;4864207;29;20073;-87
2023/01/04 02:35:31;;;;;;;49.28;24.35;;;2.20;99.90;;;;;;4881741;29;20128;-87
2023/01/04 02:38:24;;;;;;;52.70;25.70;;;2.20;99.90;;;;;;4877158;29;20094;-86
2023/01/04 02:41:32;;;;;;;56.05;25.90;;;2.20;99.90;;;;;;4882464;29;20040;-86
2023/01/04 02:44:53;;;;;;;52.25;26.55;;;2.10;99.90;;;;;;4878981;29;20052;-86
2023/01/04 02:50:56;;;;;;;46.63;22.52;;;2.10;99.90;;;;;;4872116;29;20045;-85
2023/01/04 02:53:44;;;;;;;47.10;23.25;;;2.10;99.90;;;;;;4878630;29;20056;-88
2023/01/04 02:57:03;;;;;;;52.33;23.38;;;2.10;99.90;;;;;;4883101;29;20104;-87
2023/01/04 03:00:09;;;;;;;47.75;21.98;;;2.10;99.90;;;;;;4881864;29;20128;-87
2023/01/04 03:06:44;;;;;;;36.45;19.45;;;2.20;99.90;;;;;;4882903;29;20049;-89
2023/01/04 03:09:34;;;;;;;35.78;18.92;;;2.30;99.90;;;;;;4882081;29;20471;-86
2023/01/04 03:12:39;;;;;;;35.40;18.50;;;2.30;99.90;;;;;;4867993;29;20089;-85
2023/01/04 03:15:35;;;;;;;33.72;18.27;;;2.30;99.90;;;;;;4883055;29;20113;-85
2023/01/04 03:18:28;;;;;;;31.70;17.35;;;2.30;99.90;;;;;;4881101;29;20121;-85
2023/01/04 03:21:17;;;;;;;29.98;16.60;;;2.30;99.90;;;;;;4880768;29;20068;-86
2023/01/04 03:36:44;;;;;;;21.77;12.23;;;2.50;99.90;;;;;;4881107;29;20034;-87
2023/01/04 03:49:30;;;;;;;17.95;11.32;;;2.50;99.90;;;;;;4883124;29;20045;-87
2023/01/04 03:52:19;;;;;;;17.02;10.57;;;2.60;99.90;;;;;;4881879;29;20056;-88
2023/01/04 03:55:09;;;;;;;18.00;10.43;;;2.60;99.90;;;;;;4882303;29;20484;-90
2023/01/04 03:57:59;;;;;;;15.55;10.07;;;2.60;99.90;;;;;;4883578;29;20060;-89
2023/01/04 04:00:47;;;;;;;16.05;10.63;;;2.60;99.90;;;;;;4881264;29;20045;-89
2023/01/04 04:09:46;;;;;;;16.10;9.95;;;2.70;99.90;;;;;;4887068;29;20124;-88
2023/01/04 04:12:34;;;;;;;16.13;9.35;;;2.70;99.90;;;;;;4878854;29;20060;-87
2023/01/04 04:15:21;;;;;;;14.45;9.40;;;2.70;99.90;;;;;;4880885;29;20053;-89
2023/01/04 04:18:08;;;;;;;14.30;9.48;;;2.80;99.90;;;;;;4885951;29;20049;-88
2023/01/04 04:20:58;;;;;;;15.52;8.98;;;2.80;99.90;;;;;;4868486;29;20053;-87
2023/01/04 04:23:46;;;;;;;13.40;8.85;;;2.90;99.90;;;;;;4881903;29;20053;-90
2023/01/04 04:26:33;;;;;;;11.43;8.20;;;3.00;99.90;;;;;;4868059;29;20092;-88
2023/01/04 04:29:22;;;;;;;12.95;8.50;;;3.10;99.90;;;;;;4880502;29;20041;-88
2023/01/04 04:32:11;;;;;;;10.52;7.35;;;3.10;99.90;;;;;;4878771;29;20056;-88
2023/01/04 04:34:58;;;;;;;11.07;7.18;;;3.10;99.90;;;;;;4857215;29;20041;-88
2023/01/04 04:37:46;;;;;;;10.27;7.32;;;3.10;99.90;;;;;;4881303;29;20089;-89
2023/01/04 04:43:43;;;;;;;13.10;6.80;;;3.20;99.90;;;;;;4880972;29;20056;-88
2023/01/04 04:46:31;;;;;;;9.77;6.55;;;3.20;99.90;;;;;;4880656;29;20097;-89
2023/01/04 04:49:18;;;;;;;9.82;6.93;;;3.30;99.90;;;;;;4880306;29;20500;-87
2023/01/04 04:52:05;;;;;;;8.30;5.90;;;3.40;99.90;;;;;;4882624;29;20117;-90
2023/01/04 04:54:52;;;;;;;7.82;5.90;;;3.40;99.90;;;;;;4881417;29;20049;-89
2023/01/04 04:57:39;;;;;;;10.80;5.90;;;3.60;99.90;;;;;;4884061;29;20113;-90
2023/01/04 05:00:26;;;;;;;7.28;5.22;;;3.60;99.90;;;;;;4881894;29;20112;-86
2023/01/04 05:03:14;;;;;;;7.30;5.80;;;3.70;99.90;;;;;;4881328;29;20049;-87
2023/01/04 05:06:05;;;;;;;10.07;5.90;;;3.90;99.90;;;;;;4866517;29;20068;-88
2023/01/04 05:08:52;;;;;;;8.45;5.85;;;3.90;99.90;;;;;;4874702;29;20049;-90
2023/01/04 05:14:45;;;;;;;7.32;5.78;;;3.90;99.90;;;;;;4880433;29;20177;-92
2023/01/04 05:17:32;;;;;;;8.80;5.50;;;4.00;99.90;;;;;;4880914;29;20121;-89
2023/01/04 05:20:20;;;;;;;7.00;5.05;;;4.10;99.90;;;;;;4881977;29;20492;-91
2023/01/04 05:23:09;;;;;;;6.22;4.63;;;4.30;99.90;;;;;;4866669;29;20045;-91
2023/01/04 05:25:58;;;;;;;8.07;4.68;;;4.50;99.90;;;;;;4867135;29;20068;-89
2023/01/04 05:28:45;;;;;;;6.50;4.97;;;4.50;99.90;;;;;;4881264;29;20048;-89
2023/01/04 05:31:39;;;;;;;4.97;4.00;;;4.50;24.10;;;;;;4880081;29;20056;-90
2023/01/04 05:34:26;;;;;;;6.32;4.68;;;4.50;1.00;;;;;;4875764;29;20056;-89
2023/01/04 05:37:14;;;;;;;8.55;5.00;;;4.50;1.00;;;;;;4881774;29;20436;-88
2023/01/04 05:40:01;;;;;;;7.78;5.43;;;4.50;99.90;;;;;;4885184;29;20093;-89
2023/01/04 05:42:51;;;;;;;8.20;5.97;;;4.50;99.90;;;;;;4880316;29;20057;-89
2023/01/04 05:45:39;;;;;;;9.63;5.15;;;4.40;61.60;;;;;;4887320;29;20055;-89
2023/01/04 05:48:27;;;;;;;12.55;6.32;;;4.40;1.00;;;;;;4882743;29;20037;-90
2023/01/04 05:51:17;;;;;;;7.68;5.65;;;4.40;1.00;;;;;;4883573;29;20076;-89
2023/01/04 05:54:04;;;;;;;10.10;6.63;;;4.40;99.90;;;;;;4885156;29;20053;-91
2023/01/04 05:56:51;;;;;;;9.55;6.00;;;4.40;99.90;;;;;;4882006;29;20189;-88
2023/01/04 05:59:41;;;;;;;9.60;6.25;;;4.30;99.90;;;;;;4882171;29;20056;-91
2023/01/04 06:02:31;;;;;;;11.65;6.85;;;4.30;99.90;;;;;;4884593;29;20072;-90
2023/01/04 06:05:18;;;;;;;10.27;6.45;;;4.30;71.10;;;;;;4883187;29;20098;-91
2023/01/04 06:08:06;;;;;;;8.30;6.10;;;4.30;3.00;;;;;;4882975;29;20424;-91
2023/01/04 06:10:54;;;;;;;7.63;5.60;;;4.30;1.00;;;;;;4883150;29;20140;-91
2023/01/04 06:13:41;;;;;;;6.70;5.25;;;4.30;99.90;;;;;;4883211;29;20133;-92
2023/01/04 06:16:28;;;;;;;6.88;4.90;;;4.30;99.90;;;;;;4883949;29;20105;-91
2023/01/04 06:19:16;;;;;;;6.93;4.57;;;4.50;99.90;;;;;;4888178;29;20047;-85
2023/01/04 06:22:03;;;;;;;6.05;4.47;;;4.50;57.90;;;;;;4883885;29;20049;-87
2023/01/04 06:24:53;;;;;;;9.77;5.20;;;4.50;1.00;;;;;;4879288;29;20116;-87
2023/01/04 06:27:40;;;;;;;9.48;4.63;;;4.50;99.90;;;;;;4882770;29;20064;-88
2023/01/04 06:30:30;;;;;;;8.90;4.43;;;4.60;7.40;;;;;;4884203;29;20057;-89
2023/01/04 06:33:19;;;;;;;5.38;3.85;;;4.60;99.90;;;;;;4872791;29;20140;-87
2023/01/04 06:36:07;;;;;;;5.38;3.83;;;4.70;99.90;;;;;;4868931;29;20157;-87
2023/01/04 06:39:16;;;;;;;4.55;3.78;;;4.80;1.00;;;;;;4878995;29;20045;-87
2023/01/04 06:42:03;;;;;;;5.57;3.95;;;4.80;99.90;;;;;;4882505;29;20080;-86
2023/01/04 06:44:53;;;;;;;7.85;4.32;;;4.80;99.90;;;;;;4883118;29;20057;-85
2023/01/04 06:47:40;;;;;;;6.80;4.55;;;4.80;7.80;;;;;;4886052;29;20132;-88
2023/01/04 06:50:29;;;;;;;4.40;3.63;;;4.80;1.00;;;;;;4881000;29;20053;-90
2023/01/04 06:53:19;;;;;;;5.25;4.18;;;4.80;1.00;;;;;;4885272;29;20068;-86
2023/01/04 07:13:36;;;;;;;;;;;;;;;;;;;;;
2023/01/04 07:21:54;;;;;;;;;;;;;;;;;;;;;
2023/01/04 07:25:19;;;;;;;4.95;3.60;;;4.70;3.20;;;;;;4827291;29;20050;-84
2023/01/04 07:29:21;;;;;;;5.15;3.08;;;4.70;1.00;;;;;;4752565;30;20051;-85
2023/01/04 07:32:53;;;;;;;;;;;;;;;;;;;;;
2023/01/04 07:40:42;;;;;;;5.38;3.20;;;4.60;1.00;;;;;;4717650;30;20116;-85
2023/01/04 07:44:17;;;;;;;6.00;3.08;;;4.60;1.00;;;;;;4714539;30;20061;-84
2023/01/04 07:56:30;;;;;;;4.68;2.60;;;4.70;1.00;;;;;;4767973;30;20039;-84
2023/01/04 08:04:06;;;;;;;;;;;;;;;;;;;;;
2023/01/04 08:11:49;;;;;;;3.75;2.22;;;4.70;15.10;;;;;;4703032;30;20289;-84
2023/01/04 08:19:49;;;;;;;3.30;2.33;;;4.80;99.90;;;;;;4682409;30;20041;-86
2023/01/04 08:27:25;;;;;;;;;;;;;;;;;;;;;
2023/01/04 08:35:40;;;;;;;5.18;2.30;;;4.90;23.80;;;;;;4732783;30;20040;-87
2023/01/04 08:39:34;;;;;;;;;;;;;;;;;;;;;
2023/01/04 09:51:26;;;;;;;3.90;1.77;;;5.90;70.10;;;;;;6174193;23;20070;-86
2023/01/04 10:08:07;;;;;;;2.53;1.40;;;6.30;1.00;;;;;;5912925;24;20443;-84
2023/01/04 10:11:38;;;;;;;3.17;2.22;;;6.20;1.00;;;;;;5917421;23;20459;-89
2023/01/04 10:15:24;;;;;;;;;;;;;;;;;;;;;
2023/01/04 11:27:16;;;;;;;;;;;;;;;;;;;;;
2023/01/04 11:34:58;;;;;;;3.47;1.65;;;7.20;99.90;;;;;;5962571;24;20313;-87
2023/01/04 12:15:14;;;;;;;;;;;;;;;;;;;;;
2023/01/04 12:22:46;;;;;;;2.00;1.70;;;7.60;99.90;;;;;;5981785;24;20084;-87
2023/01/04 12:51:34;;;;;;;;;;;;;;;;;;;;;
2023/01/04 12:55:42;;;;;;;;;;;;;;;;;;;;;
2023/01/04 12:59:29;;;;;;;4.30;1.67;;;8.00;1.00;;;;;;6121509;23;20009;-87
2023/01/04 13:02:59;;;;;;;;;;;;;;;;;;;;;
2023/01/04 13:14:26;;;;;;;4.03;1.90;;;8.40;1.00;;;;;;6155063;23;19996;-84
2023/01/04 13:26:29;;;;;;;1.67;1.13;;;8.60;99.90;;;;;;6134415;23;20037;-85
2023/01/04 13:38:55;;;;;;;3.33;1.42;;;8.80;99.90;;;;;;6019162;23;20024;-87
2023/01/04 13:46:57;;;;;;;1.33;1.13;;;8.80;99.90;;;;;;5988808;23;20409;-89
2023/01/04 14:02:52;;;;;;;1.63;1.15;;;8.80;99.90;;;;;;5851972;24;20030;-86
2023/01/04 14:14:24;;;;;;;2.00;1.50;;;8.80;99.90;;;;;;5858392;24;20074;-87
2023/01/04 14:41:26;;;;;;;7.10;3.72;;;8.70;99.90;;;;;;5667631;25;20018;-85
2023/01/04 14:44:40;;;;;;;2.35;1.35;;;8.70;99.90;;;;;;5685942;25;20569;-87
2023/01/04 14:48:13;;;;;;;;;;;;;;;;;;;;;
2023/01/04 14:55:47;;;;;;;3.70;1.50;;;8.60;99.90;;;;;;5896832;24;20122;-87
2023/01/04 14:59:12;;;;;;;;;;;8.60;99.90;;;;;;5884424;24;20037;-87
2023/01/04 15:02:52;;;;;;;2.13;1.50;;;8.60;99.90;;;;;;6042488;23;20040;-90
2023/01/04 15:05:53;;;;;;;2.63;1.30;;;8.50;1.00;;;;;;5957312;23;20502;-84
2023/01/04 15:09:23;;;;;;;2.78;1.58;;;8.60;1.00;;;;;;5921309;23;20468;-84
2023/01/04 15:12:21;;;;;;;4.57;2.63;;;8.60;1.00;;;;;;5916534;24;20053;-84
2023/01/04 15:16:05;;;;;;;;;;;;;;;;;;;;;
2023/01/04 15:19:59;;;;;;;3.20;1.80;;;8.50;1.00;;;;;;5907403;23;20069;-86
2023/01/04 15:23:35;;;;;;;2.63;1.48;;;8.50;1.00;;;;;;5994379;23;20099;-86
2023/01/04 15:30:34;;;;;;;1.60;1.50;;;8.40;1.00;;;;;;5974350;24;20020;-85
2023/01/04 15:34:04;;;;;;;1.85;1.52;;;8.40;1.00;;;;;;5975152;24;20016;-86
2023/01/04 15:51:02;;;;;;;3.50;1.30;;;8.50;1.00;;;;;;6064495;23;20026;-87
2023/01/04 15:53:57;;;;;;;2.42;1.70;;;8.60;1.00;;;;;;6135311;23;20040;-89
2023/01/04 15:56:51;;;;;;;4.40;2.13;;;8.50;1.00;;;;;;6218865;22;20085;-87
2023/01/04 15:59:40;;;;;;;5.47;3.80;;;8.60;1.00;;;;;;6127212;23;20006;-88
2023/01/04 16:02:32;;;;;;;3.33;2.35;;;8.50;1.00;;;;;;6149164;23;20095;-86
2023/01/04 16:05:33;;;;;;;5.95;3.33;;;8.50;1.00;;;;;;6126720;23;20030;-87
2023/01/04 16:08:24;;;;;;;;;;;8.50;1.00;;;;;;6123892;23;20021;-89
2023/01/04 16:11:25;;;;;;;6.25;3.53;;;8.60;3.40;;;;;;6137670;23;20239;-90
2023/01/04 16:14:16;;;;;;;3.95;1.33;;;8.60;1.00;;;;;;6112595;23;20049;-88
2023/01/04 16:17:08;;;;;;;4.13;2.72;;;8.70;1.00;;;;;;6131217;23;20033;-90
2023/01/04 16:19:56;;;;;;;2.35;1.77;;;8.70;1.00;;;;;;6126864;23;20104;-88
2023/01/04 16:22:43;;;;;;;1.88;1.45;;;8.70;1.00;;;;;;6128822;23;20113;-88
2023/01/04 16:25:33;;;;;;;1.70;1.40;;;8.70;1.00;;;;;;6127400;23;20037;-87
2023/01/04 16:28:23;;;;;;;2.03;1.40;;;8.70;1.00;;;;;;6130545;23;20022;-88
2023/01/04 16:31:13;;;;;;;1.92;1.25;;;8.70;1.00;;;;;;6108188;23;20151;-89
2023/01/04 16:34:01;;;;;;;3.65;1.70;;;8.80;1.00;;;;;;6108029;23;20105;-90
2023/01/04 16:36:52;;;;;;;1.20;1.10;;;8.80;1.00;;;;;;6109440;23;20030;-88
2023/01/04 16:39:40;;;;;;;1.58;1.48;;;8.80;1.00;;;;;;6124594;23;20022;-87
2023/01/04 16:42:50;;;;;;;1.20;1.10;;;8.80;1.00;;;;;;6122258;23;20329;-86
2023/01/04 16:45:37;;;;;;;3.08;1.40;;;8.80;1.00;;;;;;6102585;23;20053;-88
2023/01/04 16:48:25;;;;;;;1.30;1.20;;;8.80;1.00;;;;;;6122358;23;20040;-86
2023/01/04 16:51:16;;;;;;;2.63;1.08;;;8.90;1.00;;;;;;6101758;23;20083;-86
2023/01/04 16:54:06;;;;;;;1.23;1.05;;;8.90;1.00;;;;;;6121071;23;20054;-84
2023/01/04 16:56:57;;;;;;;2.97;1.35;;;8.90;1.00;;;;;;6121007;23;20026;-84
2023/01/04 16:59:44;;;;;;;2.20;1.40;;;8.90;1.00;;;;;;6207409;23;20025;-84
2023/01/04 17:02:33;;;;;;;1.95;1.35;;;8.90;1.00;;;;;;6100129;23;20317;-89
2023/01/04 17:05:20;;;;;;;1.80;1.30;;;8.90;1.00;;;;;;6122222;23;20088;-86
2023/01/04 17:08:08;;;;;;;1.58;1.40;;;8.90;1.00;;;;;;6102747;23;20030;-88
2023/01/04 17:10:58;;;;;;;3.28;1.38;;;8.90;1.00;;;;;;6101476;23;20030;-87
2023/01/04 17:14:07;;;;;;;1.50;1.40;;;9.00;1.00;;;;;;6106780;23;20119;-85
2023/01/04 17:16:55;;;;;;;1.27;1.17;;;9.00;1.00;;;;;;6103442;23;20030;-83
2023/01/04 17:19:44;;;;;;;1.52;1.15;;;9.00;1.00;;;;;;6125756;23;20080;-85
2023/01/04 17:22:34;;;;;;;2.75;1.55;;;9.00;1.00;;;;;;6125033;23;20325;-84
2023/01/04 17:25:24;;;;;;;2.25;1.50;;;9.00;1.00;;;;;;6130077;23;20105;-82
2023/01/04 17:28:12;;;;;;;1.85;1.27;;;9.00;1.00;;;;;;6127515;23;20037;-85
2023/01/04 17:31:16;;;;;;;2.15;1.35;;;9.10;1.00;;;;;;6130563;23;20041;-87
2023/01/04 17:34:03;;;;;;;1.88;1.38;;;9.10;1.00;;;;;;6135558;23;20387;-87
2023/01/04 17:36:53;;;;;;;3.22;1.40;;;9.20;1.00;;;;;;6118922;23;20033;-86
2023/01/04 17:39:41;;;;;;;2.90;1.95;;;9.10;1.00;;;;;;6125249;23;20094;-85
2023/01/04 17:42:35;;;;;;;3.25;2.20;;;9.10;1.00;;;;;;6124356;23;20022;-83
2023/01/04 17:45:36;;;;;;;2.00;1.40;;;9.10;1.00;;;;;;6136548;23;20434;-88
2023/01/04 17:48:25;;;;;;;1.50;1.20;;;9.00;1.00;;;;;;6112172;23;20026;-85
2023/01/04 17:51:19;;;;;;;6.50;2.33;;;9.00;1.00;;;;;;6124893;23;20060;-86
2023/01/04 17:54:09;;;;;;;3.65;1.90;;;9.00;1.00;;;;;;6129951;23;20026;-86
2023/01/04 17:56:59;;;;;;;3.05;1.40;;;9.00;1.00;;;;;;6128126;23;20495;-85
2023/01/04 17:59:50;;;;;;;2.17;1.58;;;9.00;1.00;;;;;;6126845;23;20033;-85
2023/01/04 18:02:37;;;;;;;1.65;1.30;;;9.00;1.00;;;;;;6128362;23;20081;-86
2023/01/04 18:05:25;;;;;;;4.47;1.30;;;9.00;1.00;;;;;;6107179;23;20045;-87
2023/01/04 18:08:12;;;;;;;2.88;1.60;;;9.00;25.10;;;;;;6125044;23;20040;-85
2023/01/04 18:11:04;;;;;;;2.58;2.38;;;8.90;86.70;;;;;;6103780;23;20325;-84
2023/01/04 18:13:54;;;;;;;2.22;1.48;;;8.90;99.90;;;;;;6125111;23;20465;-86
2023/01/04 18:16:59;;;;;;;2.63;1.70;;;8.90;99.90;;;;;;6126887;23;20029;-87
2023/01/04 18:19:51;;;;;;;1.20;1.10;;;8.90;99.90;;;;;;6123375;23;20032;-89
2023/01/04 18:22:41;;;;;;;1.40;1.30;;;8.80;99.90;;;;;;6123618;23;20103;-85
2023/01/04 18:25:31;;;;;;;2.05;1.60;;;8.80;99.90;;;;;;6122243;23;20030;-87
2023/01/04 18:28:22;;;;;;;2.03;1.48;;;8.80;99.90;;;;;;6126804;23;20030;-86
2023/01/04 18:31:40;;;;;;;2.25;1.58;;;8.70;1.00;;;;;;6126855;22;20413;-86
2023/01/04 18:34:29;;;;;;;3.03;1.65;;;8.70;1.00;;;;;;6106843;23;20030;-88
2023/01/04 18:37:21;;;;;;;1.50;1.35;;;8.70;1.00;;;;;;6102981;23;20321;-87
2023/01/04 18:40:22;;;;;;;1.38;1.20;;;8.70;1.00;;;;;;6105019;23;20425;-88
2023/01/04 18:43:12;;;;;;;1.33;1.15;;;8.70;74.70;;;;;;6125157;23;20019;-90
2023/01/04 18:46:09;;;;;;;2.47;1.60;;;8.60;99.90;;;;;;6106518;23;20424;-87
2023/01/04 18:49:03;;;;;;;5.55;1.83;;;8.60;99.90;;;;;;6125306;23;20036;-91
2023/01/04 18:51:52;;;;;;;2.97;1.70;;;8.60;99.90;;;;;;6105453;23;20030;-88
2023/01/04 18:54:40;;;;;;;1.67;1.00;;;8.60;99.90;;;;;;6126369;23;20083;-87
2023/01/04 18:57:27;;;;;;;2.30;1.40;;;8.60;99.90;;;;;;6104598;23;20030;-89
2023/01/04 19:00:15;;;;;;;1.40;1.25;;;8.60;1.00;;;;;;6126519;23;20429;-91
2023/01/04 19:03:02;;;;;;;1.50;1.40;;;8.50;1.00;;;;;;6125630;23;20036;-90
2023/01/04 19:05:53;;;;;;;1.83;1.52;;;8.50;59.40;;;;;;6126487;23;20125;-86
2023/01/04 19:08:41;;;;;;;0.90;0.90;;;8.50;99.90;;;;;;6125471;23;20101;-86
2023/01/04 19:11:35;;;;;;;1.40;1.30;;;8.50;99.90;;;;;;6124993;23;20186;-90
2023/01/04 19:14:23;;;;;;;1.65;1.40;;;8.50;99.90;;;;;;6125087;23;20026;-88
2023/01/04 19:17:10;;;;;;;1.85;1.20;;;8.60;1.00;;;;;;6104122;23;20030;-89
2023/01/04 19:20:03;;;;;;;3.85;2.22;;;8.60;1.00;;;;;;6102568;23;20030;-86
2023/01/04 19:22:50;;;;;;;1.52;1.30;;;8.60;1.00;;;;;;6123428;23;20449;-90
2023/01/04 19:25:39;;;;;;;1.63;1.52;;;8.60;13.00;;;;;;6105690;23;20025;-85
2023/01/04 19:28:29;;;;;;;1.25;1.15;;;8.50;99.90;;;;;;6125260;23;20036;-88
2023/01/04 19:31:18;;;;;;;1.42;1.20;;;8.50;99.90;;;;;;6124882;23;20079;-87
2023/01/04 19:34:10;;;;;;;1.55;1.00;;;8.50;99.90;;;;;;6105384;23;20033;-88
2023/01/04 19:36:57;;;;;;;1.65;1.10;;;8.50;1.00;;;;;;6127863;23;20036;-91
2023/01/04 19:39:45;;;;;;;1.23;1.13;;;8.50;19.60;;;;;;6126952;23;20040;-91
2023/01/04 19:42:33;;;;;;;3.78;2.67;;;8.50;99.90;;;;;;6111169;23;20087;-90
2023/01/04 19:45:21;;;;;;;2.45;2.25;;;8.50;99.90;;;;;;6131556;23;20411;-90
2023/01/04 19:48:12;;;;;;;3.13;1.38;;;8.50;99.90;;;;;;6127902;23;20090;-89
2023/01/04 19:51:09;;;;;;;0.93;0.90;;;8.50;1.00;;;;;;6110931;23;20022;-88
2023/01/04 19:53:59;;;;;;;1.40;1.20;;;8.50;99.90;;;;;;6128561;23;20037;-90
2023/01/04 19:56:49;;;;;;;2.42;1.25;;;8.40;99.90;;;;;;6127512;23;20073;-88
2023/01/04 19:59:40;;;;;;;2.45;1.60;;;8.30;1.00;;;;;;6109111;23;20087;-88
2023/01/04 20:02:27;;;;;;;3.78;1.30;;;8.30;99.90;;;;;;6108320;23;20078;-90
2023/01/04 20:05:15;;;;;;;2.15;1.58;;;8.30;1.00;;;;;;6129019;23;20054;-92
2023/01/04 20:08:03;;;;;;;2.05;1.85;;;8.20;17.40;;;;;;6126717;23;20030;-90
2023/01/04 20:10:55;;;;;;;3.13;2.03;;;8.10;99.90;;;;;;6126376;23;20038;-89
2023/01/04 20:13:45;;;;;;;2.33;1.42;;;8.10;99.90;;;;;;6125624;23;20098;-90
2023/01/04 20:16:35;;;;;;;3.58;1.70;;;8.10;99.90;;;;;;6105015;23;20511;-89
2023/01/04 20:19:40;;;;;;;1.30;1.20;;;8.10;99.90;;;;;;6125535;23;20291;-89
2023/01/04 20:22:31;;;;;;;1.20;1.15;;;8.10;99.90;;;;;;6104899;23;20032;-91
2023/01/04 20:25:21;;;;;;;1.92;1.45;;;8.10;99.90;;;;;;6104899;23;20030;-91
2023/01/04 20:28:22;;;;;;;1.63;1.40;;;8.10;99.90;;;;;;6134004;23;20048;-89
2023/01/04 20:31:30;;;;;;;3.40;1.65;;;8.00;99.90;;;;;;6216970;23;20036;-90
2023/01/04 20:34:18;;;;;;;1.33;1.23;;;8.00;99.90;;;;;;6107602;23;20030;-89
2023/01/04 20:37:05;;;;;;;2.00;1.80;;;8.00;99.90;;;;;;6125101;23;20033;-90
2023/01/04 20:39:53;;;;;;;1.17;1.00;;;8.10;99.90;;;;;;6106301;23;20026;-89
2023/01/04 20:45:48;;;;;;;1.20;1.10;;;8.10;99.90;;;;;;6125586;23;20026;-91
2023/01/04 20:48:53;;;;;;;2.50;1.40;;;8.00;99.90;;;;;;6127010;23;20025;-91
2023/01/04 20:51:41;;;;;;;1.27;1.20;;;8.00;99.90;;;;;;6105961;23;20021;-89
2023/01/04 20:54:28;;;;;;;2.85;1.85;;;8.00;99.90;;;;;;6125686;23;20026;-90
2023/01/04 20:57:15;;;;;;;2.58;1.80;;;8.00;99.90;;;;;;6105972;23;20033;-91
2023/01/04 21:00:06;;;;;;;1.25;1.15;;;8.00;99.90;;;;;;6125943;23;20026;-88
2023/01/04 21:02:56;;;;;;;2.88;2.53;;;8.00;99.90;;;;;;6128424;23;20030;-88
2023/01/04 21:05:44;;;;;;;2.88;2.13;;;8.00;99.90;;;;;;6104851;23;20022;-90
2023/01/04 21:08:35;;;;;;;2.22;2.03;;;8.00;99.90;;;;;;6130044;23;20061;-90
2023/01/04 21:11:24;;;;;;;1.73;1.55;;;8.00;99.90;;;;;;6126740;23;20030;-87
2023/01/04 21:14:20;;;;;;;2.55;2.00;;;8.00;99.90;;;;;;6107465;23;20515;-91
2023/01/04 21:17:08;;;;;;;8.52;4.82;;;8.10;99.90;;;;;;6127193;23;20021;-90
2023/01/04 21:19:55;;;;;;;1.60;1.50;;;8.00;99.90;;;;;;6128109;23;20026;-90
2023/01/04 21:22:46;;;;;;;2.40;1.55;;;8.10;99.90;;;;;;6127895;23;20054;-86
2023/01/04 21:25:38;;;;;;;1.50;1.40;;;8.10;99.90;;;;;;6105650;23;20022;-86
2023/01/04 21:28:26;;;;;;;2.33;1.85;;;8.10;99.90;;;;;;6126500;23;20026;-86
2023/01/04 21:31:22;;;;;;;2.08;1.70;;;8.10;99.90;;;;;;6126872;23;20407;-90
2023/01/04 21:34:10;;;;;;;3.45;2.22;;;8.10;99.90;;;;;;6123923;23;20022;-88
2023/01/04 21:37:02;;;;;;;;;;;8.00;99.90;;;;;;6126444;23;20030;-89
2023/01/04 21:39:56;;;;;;;2.15;1.70;;;8.10;99.90;;;;;;6124318;23;19921;-91
2023/01/04 21:42:52;;;;;;;2.95;2.28;;;8.10;99.90;;;;;;6126852;23;20022;-89
2023/01/04 21:45:45;;;;;;;3.28;1.17;;;8.10;99.90;;;;;;6104387;23;20029;-88
2023/01/04 21:48:34;;;;;;;1.48;1.35;;;8.10;99.90;;;;;;6110751;23;20022;-86
2023/01/04 21:51:25;;;;;;;1.95;1.10;;;8.10;99.90;;;;;;6114295;23;20022;-88
2023/01/04 21:54:15;;;;;;;2.17;1.92;;;8.20;99.90;;;;;;6136928;23;20099;-89
2023/01/04 21:57:03;;;;;;;1.95;0.98;;;8.20;99.90;;;;;;6117041;23;20084;-87
2023/01/04 21:59:50;;;;;;;3.40;1.98;;;8.30;99.90;;;;;;6134331;23;20086;-88
2023/01/04 22:02:40;;;;;;;1.67;1.35;;;8.30;99.90;;;;;;6116803;23;20073;-87
2023/01/04 22:05:30;;;;;;;2.10;1.90;;;8.30;99.90;;;;;;6137389;23;20181;-89
2023/01/04 22:08:29;;;;;;;2.40;1.50;;;8.20;99.90;;;;;;6135938;23;20086;-88
2023/01/04 22:11:17;;;;;;;1.70;1.08;;;8.30;99.90;;;;;;6136213;23;20060;-88
2023/01/04 22:14:04;;;;;;;1.92;1.20;;;8.30;99.90;;;;;;6117292;23;20443;-89
2023/01/04 22:16:52;;;;;;;3.90;1.70;;;8.30;99.90;;;;;;6141267;23;20388;-89
2023/01/04 22:19:40;;;;;;;2.22;1.17;;;8.30;99.90;;;;;;6116298;23;20022;-90
2023/01/04 22:22:29;;;;;;;1.45;1.08;;;8.40;99.90;;;;;;6139859;23;20030;-88
2023/01/04 22:25:17;;;;;;;1.80;1.10;;;8.30;99.90;;;;;;6117543;23;20022;-88
2023/01/04 22:28:11;;;;;;;1.58;1.30;;;8.30;99.90;;;;;;6139690;23;20044;-90
2023/01/04 22:31:06;;;;;;;1.65;1.20;;;8.30;99.90;;;;;;6124780;23;20041;-89
2023/01/04 22:33:54;;;;;;;1.85;1.58;;;8.30;99.90;;;;;;6143334;23;20026;-89
2023/01/04 22:36:45;;;;;;;4.18;1.38;;;8.30;99.90;;;;;;6127744;22;20040;-88
2023/01/04 22:43:11;;;;;;;1.90;1.30;;;8.30;99.90;;;;;;6102192;22;20015;-84
2023/01/04 22:48:46;;;;;;;1.20;1.10;;;8.40;99.90;;;;;;6137212;23;20029;-88
2023/01/04 22:51:34;;;;;;;1.75;1.20;;;8.40;99.90;;;;;;6128373;23;20040;-84
2023/01/04 22:54:21;;;;;;;1.50;1.40;;;8.40;99.90;;;;;;6148164;23;20039;-86
2023/01/04 22:57:09;;;;;;;2.55;1.40;;;8.50;99.90;;;;;;6135234;23;20014;-88
2023/01/04 23:02:37;;;;;;;2.95;1.17;;;8.50;99.90;;;;;;6118889;23;20024;-87